Time;durP1;ratioP1;P1;durP2;ratioP2;P2;SDS_P1;SDS_P2;PMS_P1;PMS_P2;Temp;Humidity;BMP_temperature;BMP_pressure;BME280_temperature;BME280_humidity;BME280_pressure;Samples;Min_cycle;Max_cycle;Signal;HPM_P1;HPM_P2
2021/12/13 00:00:45;;;;;;;0.40;0.40;;;5.10;98.50;;;;;;5054190;28;20174;-69
2021/12/13 00:03:24;;;;;;;0.40;0.40;;;5.10;98.50;;;;;;5054259;28;20173;-69
2021/12/13 00:05:57;;;;;;;0.32;0.32;;;5.10;98.50;;;;;;5054073;28;20206;-70
2021/12/13 00:08:29;;;;;;;0.40;0.40;;;5.10;98.80;;;;;;5054271;28;20203;-70
2021/12/13 00:11:07;;;;;;;0.40;0.40;;;5.10;98.50;;;;;;5054136;28;20162;-69
2021/12/13 00:13:43;;;;;;;0.40;0.40;;;5.10;98.60;;;;;;5054080;28;20170;-69
2021/12/13 00:16:12;;;;;;;0.40;0.40;;;5.20;98.50;;;;;;5054258;28;20231;-70
2021/12/13 00:18:43;;;;;;;0.30;0.30;;;5.20;98.50;;;;;;5053997;28;20170;-70
2021/12/13 00:21:13;;;;;;;0.30;0.30;;;5.20;98.30;;;;;;5053348;28;20194;-70
2021/12/13 00:23:54;;;;;;;0.40;0.40;;;5.20;98.30;;;;;;5054044;28;20212;-70
2021/12/13 00:26:47;;;;;;;0.30;0.30;;;5.10;98.20;;;;;;5054022;28;20190;-70
2021/12/13 00:29:18;;;;;;;0.35;0.35;;;5.10;98.40;;;;;;5053455;28;20232;-69
2021/12/13 00:31:54;;;;;;;0.30;0.30;;;5.10;98.40;;;;;;5053993;28;20170;-69
2021/12/13 00:34:40;;;;;;;0.40;0.40;;;5.20;98.40;;;;;;5054343;28;20160;-70
2021/12/13 00:37:16;;;;;;;0.30;0.30;;;5.20;98.30;;;;;;5053950;28;20623;-70
2021/12/13 00:39:48;;;;;;;0.40;0.40;;;5.30;98.40;;;;;;5053664;28;20200;-69
2021/12/13 00:42:15;;;;;;;0.40;0.40;;;5.30;98.30;;;;;;5053652;28;20598;-70
2021/12/13 00:44:51;;;;;;;0.40;0.40;;;5.40;98.20;;;;;;5053384;28;20200;-70
2021/12/13 00:47:21;;;;;;;0.30;0.30;;;5.30;98.00;;;;;;5053726;28;20154;-70
2021/12/13 00:49:51;;;;;;;0.40;0.40;;;5.40;98.20;;;;;;5053363;28;20170;-70
2021/12/13 00:52:18;;;;;;;0.30;0.30;;;5.30;98.10;;;;;;5054048;28;20170;-69
2021/12/13 00:54:46;;;;;;;0.30;0.30;;;5.40;98.20;;;;;;5053613;28;20182;-69
2021/12/13 00:57:36;;;;;;;0.30;0.30;;;5.40;98.00;;;;;;5053459;28;20178;-69
2021/12/13 01:00:33;;;;;;;0.30;0.30;;;5.30;98.00;;;;;;5053269;28;20170;-69
2021/12/13 01:03:13;;;;;;;0.40;0.40;;;5.30;98.20;;;;;;5052766;28;20243;-69
2021/12/13 01:05:53;;;;;;;0.35;0.35;;;5.30;98.20;;;;;;5053342;28;20296;-69
2021/12/13 01:08:37;;;;;;;0.40;0.40;;;5.30;98.10;;;;;;5053548;28;20530;-69
2021/12/13 01:11:10;;;;;;;0.40;0.40;;;5.40;98.10;;;;;;5052088;28;20189;-70
2021/12/13 01:13:44;;;;;;;0.30;0.30;;;5.30;98.00;;;;;;5053277;28;20162;-70
2021/12/13 01:19:29;;;;;;;0.40;0.40;;;5.30;98.10;;;;;;5052023;28;20174;-70
2021/12/13 01:25:15;;;;;;;0.30;0.30;;;5.20;98.30;;;;;;5053261;28;20209;-70
2021/12/13 01:27:43;;;;;;;0.40;0.40;;;5.20;98.40;;;;;;5053071;28;20283;-69
2021/12/13 01:30:26;;;;;;;0.40;0.40;;;5.20;98.50;;;;;;5053094;28;20621;-69
2021/12/13 01:32:55;;;;;;;0.30;0.30;;;5.30;98.60;;;;;;5054200;28;20170;-70
2021/12/13 01:35:25;;;;;;;0.30;0.30;;;5.30;98.40;;;;;;5057000;28;20190;-70
2021/12/13 01:37:54;;;;;;;0.30;0.30;;;5.30;98.30;;;;;;5057256;28;20154;-70
2021/12/13 01:40:26;;;;;;;0.30;0.30;;;5.30;98.20;;;;;;5056978;28;20170;-70
2021/12/13 01:43:03;;;;;;;0.30;0.30;;;5.20;98.30;;;;;;5056796;28;20194;-69
2021/12/13 01:45:32;;;;;;;0.30;0.30;;;5.20;98.30;;;;;;5056979;28;20601;-69
2021/12/13 01:48:00;;;;;;;0.38;0.38;;;5.20;98.30;;;;;;5056100;28;20262;-70
2021/12/13 01:50:41;;;;;;;0.30;0.30;;;5.20;98.40;;;;;;5056677;28;20206;-69
2021/12/13 01:53:07;;;;;;;0.30;0.30;;;5.30;98.40;;;;;;5055687;28;20268;-70
2021/12/13 01:55:39;;;;;;;0.30;0.30;;;5.30;98.20;;;;;;5056770;28;20286;-70
2021/12/13 02:01:11;;;;;;;0.30;0.30;;;5.20;98.40;;;;;;5056785;28;20197;-70
2021/12/13 02:03:46;;;;;;;0.30;0.30;;;5.20;98.30;;;;;;5057264;28;20166;-70
2021/12/13 02:06:26;;;;;;;0.38;0.38;;;5.20;98.30;;;;;;5056462;28;20202;-70
2021/12/13 02:08:55;;;;;;;0.30;0.30;;;5.10;98.50;;;;;;5056582;28;20197;-69
2021/12/13 02:11:22;;;;;;;0.30;0.30;;;5.10;98.50;;;;;;5056421;28;20169;-70
2021/12/13 02:14:06;;;;;;;0.40;0.40;;;5.20;98.60;;;;;;5056485;28;20170;-70
2021/12/13 02:19:38;;;;;;;0.40;0.40;;;5.20;98.60;;;;;;5056397;28;20200;-69
2021/12/13 02:22:17;;;;;;;0.40;0.40;;;5.20;98.50;;;;;;5056444;28;20170;-70
2021/12/13 02:24:43;;;;;;;0.30;0.30;;;5.10;98.30;;;;;;5056402;28;20290;-69
2021/12/13 02:27:10;;;;;;;0.40;0.40;;;5.20;98.30;;;;;;5056151;28;20206;-69
2021/12/13 02:29:38;;;;;;;0.30;0.30;;;5.10;98.40;;;;;;5056033;28;20397;-70
2021/12/13 02:32:07;;;;;;;0.40;0.40;;;5.00;98.40;;;;;;5056156;28;20169;-69
2021/12/13 02:34:37;;;;;;;0.30;0.30;;;5.00;98.60;;;;;;5056149;28;20170;-70
2021/12/13 02:37:04;;;;;;;0.40;0.40;;;5.00;98.70;;;;;;5055875;28;20208;-70
2021/12/13 02:39:37;;;;;;;0.30;0.30;;;4.90;98.80;;;;;;5055721;28;20223;-70
2021/12/13 02:42:05;;;;;;;0.40;0.40;;;4.90;99.00;;;;;;5055787;28;20188;-69
2021/12/13 02:44:41;;;;;;;0.30;0.30;;;4.90;99.10;;;;;;5054911;28;20244;-70
2021/12/13 02:47:15;;;;;;;0.30;0.30;;;4.90;99.10;;;;;;5055771;28;20627;-70
2021/12/13 02:49:43;;;;;;;0.35;0.35;;;5.00;99.10;;;;;;5055724;28;20173;-70
2021/12/13 02:52:12;;;;;;;0.30;0.30;;;5.00;98.90;;;;;;5055605;28;20215;-70
2021/12/13 02:54:42;;;;;;;0.30;0.30;;;5.00;98.90;;;;;;5055726;28;20533;-70
2021/12/13 02:57:11;;;;;;;0.30;0.30;;;5.00;98.90;;;;;;5055537;28;20613;-70
2021/12/13 02:59:42;;;;;;;0.30;0.30;;;5.00;98.90;;;;;;5055476;28;20232;-70
2021/12/13 03:02:33;;;;;;;0.30;0.30;;;5.00;98.90;;;;;;5055521;28;20174;-69
2021/12/13 03:05:00;;;;;;;0.40;0.40;;;5.00;99.10;;;;;;5055361;28;20205;-70
2021/12/13 03:07:33;;;;;;;0.30;0.30;;;5.00;99.10;;;;;;5054118;28;20181;-70
2021/12/13 03:10:03;;;;;;;0.30;0.30;;;5.00;99.00;;;;;;5055281;28;20181;-69
2021/12/13 03:12:29;;;;;;;0.30;0.30;;;5.10;99.00;;;;;;5055446;28;20260;-70
2021/12/13 03:14:59;;;;;;;0.30;0.30;;;5.10;98.80;;;;;;5055182;28;20216;-70
2021/12/13 03:17:47;;;;;;;0.30;0.30;;;5.10;98.70;;;;;;5055317;28;20177;-69
2021/12/13 03:20:18;;;;;;;0.32;0.32;;;5.10;98.60;;;;;;5055130;28;20256;-69
2021/12/13 03:23:14;;;;;;;0.30;0.30;;;5.10;98.60;;;;;;5055022;28;20658;-69
2021/12/13 03:25:39;;;;;;;0.35;0.35;;;5.00;98.70;;;;;;5054873;28;20206;-69
2021/12/13 03:28:23;;;;;;;0.30;0.30;;;5.00;98.80;;;;;;5055091;28;20168;-70
2021/12/13 03:31:01;;;;;;;0.40;0.40;;;5.10;99.00;;;;;;5054763;28;20169;-69
2021/12/13 03:33:59;;;;;;;0.30;0.30;;;5.10;98.90;;;;;;5054971;28;20170;-69
2021/12/13 03:36:49;;;;;;;0.40;0.40;;;5.10;98.90;;;;;;5054915;28;20194;-70
2021/12/13 03:39:22;;;;;;;0.30;0.30;;;5.20;98.90;;;;;;5054827;28;20174;-70
2021/12/13 03:41:53;;;;;;;0.30;0.30;;;5.20;98.70;;;;;;5054614;28;20183;-69
2021/12/13 03:44:30;;;;;;;0.30;0.30;;;5.20;98.60;;;;;;5054669;28;20202;-70
2021/12/13 03:47:07;;;;;;;0.30;0.30;;;5.20;98.50;;;;;;5054599;28;20235;-69
2021/12/13 03:49:43;;;;;;;0.30;0.30;;;5.20;98.70;;;;;;5054542;28;20230;-70
2021/12/13 03:52:12;;;;;;;0.40;0.40;;;5.20;98.80;;;;;;5054814;28;20194;-69
2021/12/13 03:54:40;;;;;;;0.30;0.30;;;5.30;98.80;;;;;;5054520;28;20181;-69
2021/12/13 03:57:07;;;;;;;0.30;0.30;;;5.30;98.70;;;;;;5054472;28;20196;-70
2021/12/13 03:59:37;;;;;;;0.30;0.30;;;5.30;98.60;;;;;;5054185;28;20647;-70
2021/12/13 04:02:11;;;;;;;0.30;0.30;;;5.30;98.90;;;;;;5054594;28;20305;-69
2021/12/13 04:04:41;;;;;;;0.30;0.30;;;5.20;98.70;;;;;;5054678;28;20204;-70
2021/12/13 04:07:15;;;;;;;0.40;0.40;;;5.30;98.60;;;;;;5053008;28;20663;-70
2021/12/13 04:09:44;;;;;;;0.40;0.40;;;5.30;98.60;;;;;;5054132;28;20268;-70
2021/12/13 04:12:13;;;;;;;0.35;0.35;;;5.30;98.50;;;;;;5054322;28;20162;-70
2021/12/13 04:14:46;;;;;;;0.35;0.35;;;5.30;98.50;;;;;;5054240;28;20177;-70
2021/12/13 04:17:34;;;;;;;0.30;0.30;;;5.30;98.50;;;;;;5054105;28;20154;-70
2021/12/13 04:20:03;;;;;;;0.40;0.40;;;5.30;98.50;;;;;;5052689;28;20691;-70
2021/12/13 04:22:35;;;;;;;0.30;0.30;;;5.30;98.60;;;;;;5054129;28;20174;-70
2021/12/13 04:25:09;;;;;;;0.40;0.40;;;5.30;98.60;;;;;;5054013;28;20255;-69
2021/12/13 04:27:53;;;;;;;0.40;0.40;;;5.30;98.40;;;;;;5054162;28;20307;-70
2021/12/13 04:30:28;;;;;;;0.40;0.40;;;5.30;98.40;;;;;;5053814;28;20178;-70
2021/12/13 04:32:59;;;;;;;0.35;0.35;;;5.30;98.40;;;;;;5054010;28;20614;-70
2021/12/13 04:35:25;;;;;;;0.40;0.40;;;5.30;98.40;;;;;;5053923;28;20605;-70
2021/12/13 04:37:55;;;;;;;0.30;0.30;;;5.30;98.40;;;;;;5053730;28;20194;-70
2021/12/13 04:40:28;;;;;;;0.40;0.40;;;5.30;98.40;;;;;;5053589;28;20170;-70
2021/12/13 04:43:23;;;;;;;0.30;0.30;;;5.30;98.40;;;;;;5053579;28;20194;-70
2021/12/13 04:45:59;;;;;;;0.30;0.30;;;5.20;98.60;;;;;;5053099;28;20217;-70
2021/12/13 04:48:29;;;;;;;0.30;0.30;;;5.30;98.80;;;;;;5054160;28;20196;-70
2021/12/13 04:51:09;;;;;;;0.40;0.40;;;5.30;98.60;;;;;;5053506;28;20228;-70
2021/12/13 04:53:40;;;;;;;0.30;0.30;;;5.30;98.70;;;;;;5053759;28;20170;-69
2021/12/13 04:56:10;;;;;;;0.40;0.40;;;5.20;98.60;;;;;;5053603;28;20196;-70
2021/12/13 04:58:37;;;;;;;0.30;0.30;;;5.20;98.70;;;;;;5053441;28;20599;-70
2021/12/13 05:01:08;;;;;;;0.30;0.30;;;5.20;98.90;;;;;;5053314;28;20514;-69
2021/12/13 05:03:39;;;;;;;0.30;0.30;;;5.30;99.00;;;;;;5053755;28;20173;-70
2021/12/13 05:06:21;;;;;;;0.30;0.30;;;5.20;98.90;;;;;;5053340;28;20228;-70
2021/12/13 05:08:49;;;;;;;0.30;0.30;;;5.30;98.90;;;;;;5052788;28;20174;-69
2021/12/13 05:11:15;;;;;;;0.30;0.30;;;5.40;98.70;;;;;;5053171;28;20235;-70
2021/12/13 05:13:53;;;;;;;0.40;0.40;;;5.40;98.50;;;;;;5053353;28;20619;-70
2021/12/13 05:16:40;;;;;;;0.30;0.30;;;5.40;98.30;;;;;;5053326;28;20443;-70
2021/12/13 05:19:07;;;;;;;0.40;0.40;;;5.40;98.40;;;;;;5053336;28;20166;-70
2021/12/13 05:21:55;;;;;;;0.30;0.30;;;5.40;98.40;;;;;;5053429;28;20177;-69
2021/12/13 05:24:24;;;;;;;0.40;0.40;;;5.30;98.30;;;;;;5053198;28;20244;-70
2021/12/13 05:26:54;;;;;;;0.30;0.30;;;5.20;98.40;;;;;;5053118;28;20182;-70
2021/12/13 05:29:27;;;;;;;0.30;0.30;;;5.20;98.40;;;;;;5053152;28;20208;-70
2021/12/13 05:32:04;;;;;;;0.30;0.30;;;5.10;98.50;;;;;;5053788;28;20174;-70
2021/12/13 05:34:46;;;;;;;0.30;0.30;;;5.00;98.50;;;;;;5053334;28;20232;-70
2021/12/13 05:37:12;;;;;;;0.40;0.40;;;4.90;98.50;;;;;;5053223;28;20166;-70
2021/12/13 05:40:05;;;;;;;0.30;0.30;;;4.70;98.60;;;;;;5053054;28;20582;-70
2021/12/13 05:42:51;;;;;;;0.30;0.30;;;4.60;98.70;;;;;;5053275;28;20196;-69
2021/12/13 05:45:28;;;;;;;0.40;0.40;;;4.50;99.00;;;;;;5053116;28;20288;-70
2021/12/13 05:48:08;;;;;;;0.40;0.40;;;4.40;99.10;;;;;;5053069;28;20163;-69
2021/12/13 05:50:41;;;;;;;0.30;0.30;;;4.30;99.20;;;;;;5052811;28;20169;-70
2021/12/13 05:53:13;;;;;;;0.40;0.40;;;4.30;99.40;;;;;;5053141;28;20237;-70
2021/12/13 05:56:05;;;;;;;0.40;0.40;;;4.20;99.40;;;;;;5052878;28;20247;-69
2021/12/13 05:58:31;;;;;;;0.30;0.30;;;4.10;99.70;;;;;;5052594;28;20228;-70
2021/12/13 06:00:59;;;;;;;0.30;0.30;;;4.00;99.90;;;;;;5052616;28;20263;-69
2021/12/13 06:03:36;;;;;;;0.30;0.30;;;4.00;99.90;;;;;;5053045;28;20177;-70
2021/12/13 06:06:15;;;;;;;0.30;0.30;;;4.00;99.90;;;;;;5052689;28;20208;-69
2021/12/13 06:08:49;;;;;;;0.30;0.30;;;3.90;99.90;;;;;;5053064;28;20533;-70
2021/12/13 06:11:20;;;;;;;0.30;0.30;;;3.80;99.90;;;;;;5052872;28;20216;-70
2021/12/13 06:13:46;;;;;;;0.40;0.40;;;3.80;99.90;;;;;;5053012;28;20162;-69
2021/12/13 06:16:24;;;;;;;0.30;0.30;;;3.80;99.90;;;;;;5052723;28;20189;-70
2021/12/13 06:19:10;;;;;;;0.30;0.30;;;3.80;99.90;;;;;;5052921;28;20176;-70
2021/12/13 06:22:04;;;;;;;0.30;0.30;;;3.80;99.90;;;;;;5056229;28;20218;-69
2021/12/13 06:24:35;;;;;;;0.30;0.30;;;3.70;99.90;;;;;;5056367;28;20648;-70
2021/12/13 06:27:14;;;;;;;0.32;0.32;;;3.60;99.90;;;;;;5056405;28;20185;-69
2021/12/13 06:29:51;;;;;;;0.30;0.30;;;3.60;99.90;;;;;;5056026;28;20224;-69
2021/12/13 06:32:28;;;;;;;0.30;0.30;;;3.50;99.90;;;;;;5056300;28;20550;-70
2021/12/13 06:34:54;;;;;;;0.30;0.30;;;3.70;99.90;;;;;;5056036;28;20529;-70
2021/12/13 06:37:33;;;;;;;0.30;0.30;;;3.70;99.90;;;;;;5055977;28;20174;-70
2021/12/13 06:40:25;;;;;;;0.30;0.30;;;3.70;99.90;;;;;;5056049;28;20538;-70
2021/12/13 06:42:52;;;;;;;0.30;0.30;;;3.70;99.90;;;;;;5056030;28;20279;-70
2021/12/13 06:45:35;;;;;;;0.40;0.40;;;3.70;99.90;;;;;;5055675;28;20765;-70
2021/12/13 06:48:05;;;;;;;0.30;0.30;;;3.70;99.90;;;;;;5055769;28;20167;-70
2021/12/13 06:50:35;;;;;;;0.30;0.30;;;3.80;99.90;;;;;;5055637;28;20662;-69
2021/12/13 06:53:18;;;;;;;0.30;0.30;;;3.70;99.90;;;;;;5055930;28;20575;-69
2021/12/13 06:55:46;;;;;;;0.88;0.88;;;3.80;99.90;;;;;;5055589;28;20188;-70
2021/12/13 06:58:20;;;;;;;0.30;0.30;;;3.80;99.90;;;;;;5055653;28;20187;-70
2021/12/13 07:00:48;;;;;;;0.32;0.32;;;3.80;99.90;;;;;;5055447;28;20176;-70
2021/12/13 07:03:22;;;;;;;0.30;0.30;;;3.90;99.90;;;;;;5055653;28;20180;-69
2021/12/13 07:05:51;;;;;;;0.30;0.30;;;4.00;99.90;;;;;;5055533;28;20212;-69
2021/12/13 07:08:30;;;;;;;0.30;0.30;;;3.90;99.90;;;;;;5055432;28;20173;-70
2021/12/13 07:10:56;;;;;;;0.35;0.35;;;4.00;99.90;;;;;;5055352;28;20172;-70
2021/12/13 07:13:43;;;;;;;0.30;0.30;;;4.00;99.90;;;;;;5055419;28;20239;-70
2021/12/13 07:16:14;;;;;;;0.30;0.30;;;4.10;99.90;;;;;;5055421;28;20208;-70
2021/12/13 07:18:57;;;;;;;0.30;0.30;;;4.00;99.90;;;;;;5055430;28;20181;-70
2021/12/13 07:21:39;;;;;;;0.30;0.30;;;3.90;99.90;;;;;;5055038;28;20191;-70
2021/12/13 07:24:12;;;;;;;0.30;0.30;;;3.90;99.90;;;;;;5054979;28;20215;-70
2021/12/13 07:26:54;;;;;;;0.30;0.30;;;3.90;99.90;;;;;;5055013;28;20273;-70
2021/12/13 07:29:22;;;;;;;0.30;0.30;;;3.90;99.90;;;;;;5054862;28;20165;-70
2021/12/13 07:32:06;;;;;;;0.40;0.40;;;3.90;99.90;;;;;;5054733;28;20214;-70
2021/12/13 07:34:33;;;;;;;0.30;0.30;;;3.90;99.90;;;;;;5055555;28;20176;-70
2021/12/13 07:37:03;;;;;;;0.30;0.30;;;3.90;99.90;;;;;;5054757;28;20201;-70
2021/12/13 07:39:34;;;;;;;0.30;0.30;;;3.90;99.90;;;;;;5055145;28;20155;-70
2021/12/13 07:42:06;;;;;;;0.30;0.30;;;3.90;99.90;;;;;;5054472;28;20221;-69
2021/12/13 07:44:34;;;;;;;0.38;0.38;;;4.00;99.90;;;;;;5054762;28;20193;-70
2021/12/13 07:47:29;;;;;;;0.30;0.30;;;4.10;99.90;;;;;;5054603;28;20246;-69
2021/12/13 07:49:59;;;;;;;0.38;0.38;;;4.10;99.90;;;;;;5054770;28;20310;-70
2021/12/13 07:52:38;;;;;;;0.30;0.30;;;4.20;99.90;;;;;;5054649;28;20181;-70
2021/12/13 07:55:16;;;;;;;0.30;0.30;;;4.20;99.90;;;;;;5053404;28;20670;-70
2021/12/13 07:57:42;;;;;;;0.30;0.30;;;4.10;99.90;;;;;;5054409;28;20545;-70
2021/12/13 08:00:18;;;;;;;0.30;0.30;;;4.10;99.90;;;;;;5054451;28;20173;-69
2021/12/13 08:02:57;;;;;;;0.30;0.30;;;4.20;99.90;;;;;;5054623;28;20172;-69
2021/12/13 08:05:28;;;;;;;0.40;0.40;;;4.40;99.90;;;;;;5054246;28;20205;-70
2021/12/13 08:07:59;;;;;;;0.40;0.40;;;4.40;99.90;;;;;;5054263;28;20561;-69
2021/12/13 08:10:36;;;;;;;0.38;0.38;;;4.40;99.80;;;;;;5054216;28;20245;-70
2021/12/13 08:13:17;;;;;;;0.30;0.30;;;4.30;99.90;;;;;;5054304;28;20216;-70
2021/12/13 08:16:05;;;;;;;0.30;0.30;;;4.50;99.90;;;;;;5052973;28;20206;-70
2021/12/13 08:18:33;;;;;;;0.93;0.93;;;4.80;99.90;;;;;;5054110;28;20201;-70
2021/12/13 08:21:05;;;;;;;0.40;0.40;;;5.30;99.90;;;;;;5053868;28;20170;-70
2021/12/13 08:23:38;;;;;;;0.40;0.40;;;6.10;99.90;;;;;;5053967;28;20589;-70
2021/12/13 08:26:08;;;;;;;0.30;0.30;;;7.30;95.80;;;;;;5053911;28;20214;-70
2021/12/13 08:28:48;;;;;;;0.30;0.30;;;8.30;93.70;;;;;;5053822;28;20162;-70
2021/12/13 08:31:33;;;;;;;0.30;0.30;;;8.80;92.40;;;;;;5053778;28;20172;-70
2021/12/13 08:34:09;;;;;;;0.30;0.30;;;9.30;91.80;;;;;;5053823;28;20155;-70
2021/12/13 08:36:42;;;;;;;0.30;0.30;;;9.80;89.70;;;;;;5053678;28;20662;-70
2021/12/13 08:39:15;;;;;;;0.30;0.30;;;10.30;87.70;;;;;;5053770;28;20257;-70
2021/12/13 08:41:50;;;;;;;0.30;0.30;;;11.30;85.10;;;;;;5053734;28;20555;-70
2021/12/13 08:44:26;;;;;;;0.30;0.30;;;12.50;79.40;;;;;;5053484;28;20169;-70
2021/12/13 08:46:52;;;;;;;0.30;0.30;;;13.20;76.10;;;;;;5053483;28;20194;-70
2021/12/13 08:49:20;;;;;;;0.30;0.30;;;14.20;72.00;;;;;;5053424;28;20181;-70
2021/12/13 08:52:15;;;;;;;0.30;0.30;;;14.80;69.60;;;;;;5053737;28;20162;-70
2021/12/13 08:54:53;;;;;;;0.30;0.30;;;15.00;66.30;;;;;;5053740;28;20182;-70
2021/12/13 08:57:43;;;;;;;0.30;0.30;;;15.40;65.00;;;;;;5054077;28;20403;-70
2021/12/13 09:00:35;;;;;;;0.30;0.30;;;16.00;61.40;;;;;;5053357;28;20393;-70
2021/12/13 09:03:10;;;;;;;0.30;0.30;;;16.10;60.40;;;;;;5053802;28;20396;-72
2021/12/13 09:05:51;;;;;;;0.30;0.30;;;16.70;58.30;;;;;;5053438;28;20531;-71
2021/12/13 09:08:18;;;;;;;0.30;0.30;;;16.90;57.80;;;;;;5053302;28;20380;-70
2021/12/13 09:10:52;;;;;;;0.30;0.30;;;17.30;57.00;;;;;;5053182;28;20462;-71
2021/12/13 09:13:33;;;;;;;0.30;0.30;;;17.60;56.30;;;;;;5053252;28;20435;-70
2021/12/13 09:15:59;;;;;;;0.40;0.40;;;18.00;55.50;;;;;;5053327;28;20421;-71
2021/12/13 09:18:26;;;;;;;0.30;0.30;;;18.70;54.50;;;;;;5053369;28;20409;-71
2021/12/13 09:20:55;;;;;;;0.30;0.30;;;18.80;53.20;;;;;;5053014;28;20454;-71
2021/12/13 09:23:31;;;;;;;0.30;0.30;;;18.80;52.80;;;;;;5053215;28;20408;-71
2021/12/13 09:26:25;;;;;;;0.30;0.30;;;19.00;52.10;;;;;;5053081;28;20589;-71
2021/12/13 09:29:02;;;;;;;0.30;0.30;;;19.10;51.40;;;;;;5053463;28;20400;-71
2021/12/13 09:31:39;;;;;;;1.07;1.07;;;18.90;51.30;;;;;;5053209;28;20771;-71
2021/12/13 09:34:16;;;;;;;0.50;0.50;;;18.90;50.60;;;;;;5053366;28;20397;-70
2021/12/13 09:36:45;;;;;;;0.97;0.83;;;19.10;50.80;;;;;;5053150;28;20428;-70
2021/12/13 09:39:22;;;;;;;0.50;0.50;;;19.10;50.40;;;;;;5053089;28;20960;-71
2021/12/13 09:41:59;;;;;;;0.30;0.30;;;18.90;49.70;;;;;;5053108;28;20898;-70
2021/12/13 09:44:45;;;;;;;1.23;1.23;;;18.70;50.20;;;;;;5053024;28;20448;-70
2021/12/13 09:47:20;;;;;;;0.30;0.30;;;18.50;50.30;;;;;;5053134;28;20396;-70
2021/12/13 09:50:18;;;;;;;0.30;0.30;;;18.10;51.10;;;;;;5052956;28;20767;-70
2021/12/13 09:52:52;;;;;;;0.30;0.30;;;17.40;52.20;;;;;;5053023;28;20401;-70
2021/12/13 09:55:29;;;;;;;0.30;0.30;;;16.60;53.90;;;;;;5056215;28;20431;-70
2021/12/13 09:58:08;;;;;;;0.37;0.37;;;16.60;54.40;;;;;;5056864;28;20389;-70
2021/12/13 10:00:58;;;;;;;0.40;0.40;;;16.50;54.80;;;;;;5056479;28;20420;-70
2021/12/13 10:03:28;;;;;;;0.30;0.30;;;16.90;54.30;;;;;;5056732;28;20886;-70
2021/12/13 10:05:58;;;;;;;0.30;0.30;;;17.40;53.60;;;;;;5056577;28;20461;-71
2021/12/13 10:08:28;;;;;;;0.30;0.30;;;17.40;53.30;;;;;;5056845;28;20387;-70
2021/12/13 10:11:05;;;;;;;0.30;0.30;;;17.50;53.70;;;;;;5056373;28;20477;-70
2021/12/13 10:13:37;;;;;;;0.30;0.30;;;17.60;53.70;;;;;;5056467;28;20803;-70
2021/12/13 10:16:18;;;;;;;0.37;0.37;;;17.80;52.80;;;;;;5056490;28;20485;-70
2021/12/13 10:18:46;;;;;;;0.30;0.30;;;17.90;52.70;;;;;;5056697;28;20400;-71
2021/12/13 10:21:18;;;;;;;0.30;0.30;;;18.40;51.40;;;;;;5056173;28;20401;-71
2021/12/13 10:23:49;;;;;;;0.60;0.60;;;18.40;50.70;;;;;;5056497;28;20750;-70
2021/12/13 10:26:16;;;;;;;0.30;0.30;;;18.00;51.00;;;;;;5056082;28;20454;-70
2021/12/13 10:28:52;;;;;;;1.37;1.27;;;17.90;51.60;;;;;;5056354;28;20409;-70
2021/12/13 10:31:29;;;;;;;0.30;0.30;;;17.60;53.00;;;;;;5056572;28;20912;-70
2021/12/13 10:33:56;;;;;;;0.30;0.30;;;17.70;52.50;;;;;;5056310;28;20495;-70
2021/12/13 10:36:22;;;;;;;0.50;0.50;;;17.70;52.60;;;;;;5055812;28;20481;-70
2021/12/13 10:38:53;;;;;;;1.27;0.57;;;17.60;52.10;;;;;;5056253;28;20432;-70
2021/12/13 10:41:27;;;;;;;0.30;0.30;;;17.40;52.90;;;;;;5055860;28;20464;-70
2021/12/13 10:43:58;;;;;;;0.30;0.30;;;17.10;53.90;;;;;;5056059;28;20939;-70
2021/12/13 10:46:28;;;;;;;0.30;0.30;;;16.80;54.20;;;;;;5055630;28;20467;-70
2021/12/13 10:48:59;;;;;;;0.30;0.30;;;16.50;54.20;;;;;;5055962;28;20392;-70
2021/12/13 10:51:32;;;;;;;0.30;0.30;;;16.30;55.70;;;;;;5055687;28;20402;-70
2021/12/13 10:54:04;;;;;;;0.30;0.30;;;16.00;56.30;;;;;;5055867;28;20445;-70
2021/12/13 10:56:34;;;;;;;0.30;0.30;;;15.10;56.70;;;;;;5055541;28;20427;-70
2021/12/13 10:59:04;;;;;;;0.30;0.30;;;14.70;58.40;;;;;;5055550;28;20408;-70
2021/12/13 11:01:43;;;;;;;0.30;0.30;;;14.20;60.20;;;;;;5055694;28;20885;-70
2021/12/13 11:04:14;;;;;;;0.30;0.30;;;13.80;61.40;;;;;;5055692;28;20400;-70
2021/12/13 11:06:42;;;;;;;0.30;0.30;;;13.30;62.50;;;;;;5054658;28;20416;-70
2021/12/13 11:09:13;;;;;;;0.30;0.30;;;13.00;64.60;;;;;;5054392;28;20185;-70
2021/12/13 11:12:09;;;;;;;0.30;0.30;;;12.50;65.60;;;;;;5055515;28;20170;-70
2021/12/13 11:14:38;;;;;;;0.30;0.30;;;12.00;66.80;;;;;;5055321;28;20580;-72
2021/12/13 11:17:13;;;;;;;0.93;0.93;;;11.80;68.90;;;;;;5055161;28;20193;-75
2021/12/13 11:19:43;;;;;;;0.30;0.30;;;11.60;68.80;;;;;;5055087;28;20549;-72
2021/12/13 11:22:13;;;;;;;0.30;0.30;;;11.50;70.40;;;;;;5055583;28;20507;-70
2021/12/13 11:24:43;;;;;;;0.30;0.30;;;11.30;71.90;;;;;;5055173;28;20190;-70
2021/12/13 11:27:17;;;;;;;0.30;0.30;;;11.20;73.40;;;;;;5054972;28;20193;-70
2021/12/13 11:29:44;;;;;;;0.40;0.40;;;11.20;73.30;;;;;;5055044;28;20287;-70
2021/12/13 11:32:29;;;;;;;0.30;0.30;;;10.90;72.90;;;;;;5055176;28;20162;-70
2021/12/13 11:35:07;;;;;;;0.30;0.30;;;10.70;75.90;;;;;;5054834;28;20174;-70
2021/12/13 11:37:57;;;;;;;0.32;0.32;;;10.40;76.00;;;;;;5054900;28;20170;-70
2021/12/13 11:41:19;;;;;;;0.30;0.30;;;10.10;77.50;;;;;;5054670;28;20162;-69
2021/12/13 11:44:18;;;;;;;0.30;0.30;;;9.60;81.60;;;;;;5035954;28;20658;-70
2021/12/13 11:47:22;;;;;;;0.40;0.40;;;9.40;84.30;;;;;;5052864;28;20211;-70
2021/12/13 11:49:48;;;;;;;0.35;0.35;;;9.10;86.80;;;;;;5013684;28;20213;-70
2021/12/13 11:52:39;;;;;;;0.30;0.30;;;8.80;90.20;;;;;;5054547;28;20171;-70
2021/12/13 11:55:30;;;;;;;0.30;0.30;;;8.60;92.50;;;;;;5054441;28;20163;-70
2021/12/13 11:58:37;;;;;;;0.40;0.40;;;8.50;92.30;;;;;;5054703;28;20163;-70
2021/12/13 12:01:24;;;;;;;0.40;0.40;;;8.30;93.10;;;;;;5054457;28;20584;-70
2021/12/13 12:04:43;;;;;;;0.35;0.35;;;8.10;94.30;;;;;;5054648;28;20181;-70
2021/12/13 12:07:21;;;;;;;0.30;0.30;;;8.00;95.00;;;;;;5054340;28;20199;-70
2021/12/13 12:10:08;;;;;;;0.30;0.30;;;7.90;95.40;;;;;;5054238;28;20540;-70
2021/12/13 12:13:10;;;;;;;0.40;0.40;;;7.70;95.60;;;;;;5054706;28;20224;-70
2021/12/13 12:15:39;;;;;;;0.30;0.30;;;7.50;96.40;;;;;;5054108;28;20194;-70
2021/12/13 12:18:09;;;;;;;0.40;0.40;;;7.50;97.50;;;;;;5054036;28;20177;-70
2021/12/13 12:20:47;;;;;;;0.30;0.30;;;7.40;97.50;;;;;;5053869;28;20174;-70
2021/12/13 12:23:30;;;;;;;0.35;0.35;;;7.40;97.80;;;;;;5054110;28;20235;-70
2021/12/13 12:25:58;;;;;;;0.40;0.40;;;7.40;98.90;;;;;;5054123;28;20202;-70
2021/12/13 12:28:28;;;;;;;0.40;0.40;;;7.40;99.20;;;;;;5053867;28;20221;-70
2021/12/13 12:30:57;;;;;;;0.30;0.30;;;7.50;98.60;;;;;;5053793;28;20179;-70
2021/12/13 12:33:35;;;;;;;0.40;0.40;;;7.50;98.20;;;;;;5054081;28;20167;-70
2021/12/13 12:36:16;;;;;;;0.40;0.40;;;7.50;99.20;;;;;;5053725;28;20715;-70
2021/12/13 12:39:06;;;;;;;0.30;0.30;;;7.40;99.90;;;;;;5053707;28;20300;-70
2021/12/13 12:42:26;;;;;;;0.30;0.30;;;7.60;99.90;;;;;;5053803;28;20202;-72
2021/12/13 12:44:54;;;;;;;0.40;0.40;;;7.60;99.60;;;;;;5051363;28;20198;-70
2021/12/13 12:47:44;;;;;;;0.32;0.32;;;7.70;98.40;;;;;;5053001;28;20256;-70
2021/12/13 12:50:34;;;;;;;0.40;0.40;;;7.70;97.70;;;;;;5053410;28;20170;-70
2021/12/13 12:53:09;;;;;;;0.38;0.38;;;7.70;97.20;;;;;;5053610;28;20182;-70
2021/12/13 12:55:55;;;;;;;0.35;0.35;;;7.60;97.60;;;;;;5053648;28;20542;-70
2021/12/13 12:58:31;;;;;;;0.40;0.40;;;7.50;98.80;;;;;;5053738;28;20546;-70
2021/12/13 13:01:00;;;;;;;0.40;0.40;;;7.50;99.20;;;;;;5053395;28;20171;-70
2021/12/13 13:03:34;;;;;;;0.30;0.30;;;7.50;99.00;;;;;;5053545;28;20661;-70
2021/12/13 13:06:09;;;;;;;0.30;0.30;;;7.50;99.00;;;;;;5053445;28;20202;-70
2021/12/13 13:08:38;;;;;;;0.30;0.30;;;7.50;98.70;;;;;;5053593;28;20193;-70
2021/12/13 13:11:27;;;;;;;0.40;0.40;;;7.40;99.10;;;;;;5053106;28;20259;-70
2021/12/13 13:14:18;;;;;;;0.38;0.38;;;7.50;99.50;;;;;;5053588;28;20166;-70
2021/12/13 13:16:51;;;;;;;0.38;0.38;;;7.50;99.20;;;;;;5053287;28;20569;-70
2021/12/13 13:19:36;;;;;;;0.30;0.30;;;7.50;98.80;;;;;;5053173;28;20171;-70
2021/12/13 13:22:27;;;;;;;0.30;0.30;;;7.50;98.80;;;;;;5053514;28;20648;-70
2021/12/13 13:24:57;;;;;;;0.30;0.30;;;7.50;98.90;;;;;;5053087;28;20194;-70
2021/12/13 13:27:26;;;;;;;0.38;0.38;;;7.40;99.40;;;;;;5053215;28;20175;-70
2021/12/13 13:29:52;;;;;;;0.30;0.30;;;7.40;99.50;;;;;;5055467;28;20650;-70
2021/12/13 13:32:18;;;;;;;0.40;0.40;;;7.30;99.30;;;;;;5057850;28;20178;-69
2021/12/13 13:34:47;;;;;;;0.40;0.40;;;7.20;99.60;;;;;;5057358;28;20272;-70
2021/12/13 13:37:17;;;;;;;0.40;0.40;;;7.10;99.60;;;;;;5057135;28;20412;-70
2021/12/13 13:40:09;;;;;;;0.30;0.30;;;7.00;99.90;;;;;;5057001;28;20158;-70
2021/12/13 13:42:48;;;;;;;0.40;0.40;;;7.10;99.90;;;;;;5056726;28;20694;-70
2021/12/13 13:45:31;;;;;;;0.30;0.30;;;7.20;99.90;;;;;;5057102;28;20210;-70
2021/12/13 13:48:12;;;;;;;0.30;0.30;;;7.20;99.90;;;;;;5057235;28;20521;-70
2021/12/13 13:50:42;;;;;;;0.40;0.40;;;7.20;99.90;;;;;;5056771;28;20165;-70
2021/12/13 13:53:25;;;;;;;0.30;0.30;;;7.30;99.90;;;;;;5056975;28;20208;-70